Aviation Digital Data Service (ADDS)

Output produced by METARs form (0243 UTC 24 July 2017)
found at http://www.aviationweather.gov/adds/metars/
 
TAF COR SCFA 232354Z 2400/2424 20010KT 9999 FEW017 TN12/2405Z TX16/ 2417Z 
     BECMG 2404/2406 19004KT OVC012 
     BECMG 2414/2416 19010KT BKN017 
     BECMG 2417/2419 FEW017 
     BECMG 2420/2422 BKN015
       
TAF COR SCAR 2400/2424 20004KT CAVOK TN14/2404Z TX18/2417Z 
     BECMG 2402/2404 OVC015 
     BECMG 2416/2418 21010KT CAVOK 
     BECMG 2422/2424 19004KT BKN020
       
TAF SCBA 232228Z 2400/2424 30017G27KT 9999 BKN040 TN01/2412Z TX04/2418Z 
     PROB40 
     TEMPO 2402/2407 31030G45KT 6000 -RASN BKN030 
     BECMG 2410/2412 8000 -SHRA SCT020 BKN060 
     BECMG 2418/2420 9999 NSW SCT030
       
TAF COR SCCF 232332Z 2400/2424 23004KT CAVOK TN01/2411Z TX24/2418Z 
     BECMG 2401/2402 09004KT 
     BECMG 2403/2405 11020KT 
     BECMG 2415/2416 09010KT 
     BECMG 2417/2419 26015KT 
     BECMG 2423/2424 24004KT
       
TAF AMD SCIE 240212Z 2402/2424 20004KT 5000 BR NSC TX14/2418Z TN04/ 2410Z 
     TEMPO 2408/2412 VRB02KT 3000 BR FEW002 SCT008 
     BECMG 2415/2417 18004KT CAVOK 
     TEMPO 2416/2418 SCT040
       
TAF SCAT 232228Z 2400/2424 19008KT CAVOK TN07/2410Z TX20/2417Z 
     BECMG 2403/2405 10007KT 
     BECMG 2414/2416 20010KT 
     BECMG 2418/2420 24010KT 
     BECMG 2423/2424 21004KT
       
TAF COR SCDA 232333Z 2400/2424 20010KT 9999 BKN017 TN14/2409Z TX17/ 2418Z 
     BECMG 2403/2405 19004KT OVC017 
     BECMG 2415/2417 22012KT FEW025 
     BECMG 2421/2423 BKN020
       
TAF AMD SCSE 240211Z 2402/2424 13004KT CAVOK TX17/2418Z TN09/2410Z 
     TEMPO 2408/2412 SCT010 
     BECMG 2414/2416 29008KT
       
TAF SCTE 232224Z 2400/2424 36010G20KT 8000 -SHRA BKN030 TN04/2412Z TX10/2418Z 
     BECMG 2402/2404 36020KT 
     BECMG 2404/2406 36025G37KT 5000 RA OVC020 
     TEMPO 2409/2412 34010KT 9999 NSW SCT030 
     BECMG 2412/2414 30010KT 6000 -SHRA BKN030 
     BECMG 2420/2422 9999 NSW BKN060
       
TAF SCCI 232236Z 2400/2500 33010KT 9999 FEW035 TN02/2409Z TX06/2417Z 
     TEMPO 2404/2408 02008KT 
     TEMPO 2407/2410 9000 -SHRA BKN040 
     BECMG 2411/2413 29017G27KT 
     PROB30 
     TEMPO 2416/2422 7000 -SHRASN BKN020TCU
       
TAF AMD SCEL 240216Z 2402/2424 15004KT 5000 BR SCT120 TX15/2418Z TN04 /2410Z 
     TEMPO 2406/2413 2000 BR NSC 
     BECMG 2417/2419 23004KT 8000 NSC